Time;durP1;ratioP1;P1;durP2;ratioP2;P2;SDS_P1;SDS_P2;PMS_P1;PMS_P2;Temp;Humidity;BMP_temperature;BMP_pressure;BME280_temperature;BME280_humidity;BME280_pressure;Samples;Min_cycle;Max_cycle;Signal;HPM_P1;HPM_P2
2022/10/06 00:02:25;;;;;;;6.47;3.08;;;;;;;-141.48;100.00;69781.59;5221951;28;20029;-79
2022/10/06 00:04:56;;;;;;;7.00;2.92;;;;;;;-141.48;100.00;69781.59;5237476;28;20063;-80
2022/10/06 00:07:26;;;;;;;2.42;2.20;;;;;;;-141.48;100.00;69781.59;5221194;28;20060;-79
2022/10/06 00:13:24;;;;;;;9.18;3.13;;;;;;;-141.48;100.00;69781.59;5244830;28;20088;-80
2022/10/06 00:15:55;;;;;;;5.88;3.13;;;;;;;-141.48;100.00;69781.59;5221279;28;20045;-81
2022/10/06 00:18:26;;;;;;;16.20;4.43;;;;;;;-141.48;100.00;69781.59;5221743;28;20477;-81
2022/10/06 00:20:59;;;;;;;3.63;3.42;;;;;;;-141.48;100.00;69781.59;5218859;28;20032;-81
2022/10/06 00:23:30;;;;;;;9.38;3.10;;;;;;;-141.48;100.00;69781.59;5232128;28;20025;-79
2022/10/06 00:26:00;;;;;;;7.25;2.97;;;;;;;-141.48;100.00;69781.59;5231436;28;20154;-82
2022/10/06 00:28:31;;;;;;;3.55;3.22;;;;;;;-141.48;100.00;69781.59;5230433;28;20027;-80
2022/10/06 00:31:01;;;;;;;8.32;3.72;;;;;;;-141.48;100.00;69781.59;5229390;28;20029;-82
2022/10/06 00:33:32;;;;;;;3.25;2.90;;;;;;;-141.48;100.00;69781.59;5229221;28;20029;-81
2022/10/06 00:36:02;;;;;;;13.98;3.58;;;;;;;-141.48;100.00;69781.59;5229644;28;20056;-81
2022/10/06 00:38:33;;;;;;;3.25;2.92;;;;;;;-141.48;100.00;69781.59;5230319;28;20453;-79
2022/10/06 00:41:04;;;;;;;7.60;3.08;;;;;;;-141.48;100.00;69781.59;5228621;28;20094;-81
2022/10/06 00:43:43;;;;;;;10.02;3.63;;;;;;;-141.48;100.00;69781.59;5228807;28;20052;-82
2022/10/06 00:46:20;;;;;;;2.63;2.45;;;;;;;-141.48;100.00;69781.59;5229170;28;20248;-81
2022/10/06 00:49:09;;;;;;;5.40;2.95;;;;;;;-141.48;100.00;69781.59;5229325;28;20487;-82
2022/10/06 00:51:45;;;;;;;6.20;3.20;;;;;;;-141.48;100.00;69781.59;5228155;28;20068;-80
2022/10/06 00:54:16;;;;;;;9.80;3.42;;;;;;;-141.48;100.00;69781.59;5227801;28;20051;-81
2022/10/06 00:56:47;;;;;;;5.32;3.45;;;;;;;-141.48;100.00;69781.59;5228888;28;20395;-81
2022/10/06 00:59:19;;;;;;;5.22;2.50;;;;;;;-141.48;100.00;69781.59;5210907;28;20024;-81
2022/10/06 01:02:00;;;;;;;13.55;3.67;;;;;;;-141.48;100.00;69781.59;5209972;28;20116;-81
2022/10/06 01:04:43;;;;;;;9.98;2.60;;;;;;;-141.48;100.00;69781.59;5229304;28;20045;-80
2022/10/06 01:10:40;;;;;;;4.93;3.63;;;;;;;-141.48;100.00;69781.59;5229339;28;20250;-80
2022/10/06 01:13:12;;;;;;;8.35;3.05;;;;;;;-141.48;100.00;69781.59;5226736;28;20152;-82
2022/10/06 01:15:53;;;;;;;3.78;2.42;;;;;;;-141.48;100.00;69781.59;5229662;28;20120;-81
2022/10/06 01:18:26;;;;;;;5.30;4.03;;;;;;;-141.48;100.00;69781.59;5230295;28;20020;-80
2022/10/06 01:21:04;;;;;;;11.13;3.15;;;;;;;-141.48;100.00;69781.59;5231081;28;20024;-81
2022/10/06 01:23:35;;;;;;;6.90;3.42;;;;;;;-141.48;100.00;69781.59;5229821;28;20040;-81
2022/10/06 01:26:09;;;;;;;19.10;5.88;;;;;;;-141.48;100.00;69781.59;5230797;28;20025;-80
2022/10/06 01:28:40;;;;;;;9.80;3.92;;;;;;;-141.48;100.00;69781.59;5230672;28;20486;-81
2022/10/06 01:31:10;;;;;;;11.75;3.45;;;;;;;-141.48;100.00;69781.59;5211981;28;20017;-82
2022/10/06 01:33:41;;;;;;;8.75;3.67;;;;;;;-141.48;100.00;69781.59;5228624;28;20280;-83
2022/10/06 01:36:11;;;;;;;18.48;4.35;;;;;;;-141.48;100.00;69781.59;5212523;28;20020;-81
2022/10/06 01:38:41;;;;;;;6.70;3.65;;;;;;;-141.48;100.00;69781.59;5231071;28;20482;-82
2022/10/06 01:41:12;;;;;;;8.52;3.75;;;;;;;-141.48;100.00;69781.59;5231657;28;20214;-82
2022/10/06 01:43:42;;;;;;;9.70;2.95;;;;;;;-141.48;100.00;69781.59;5213891;28;20021;-80
2022/10/06 01:46:14;;;;;;;11.50;4.55;;;;;;;-141.48;100.00;69781.59;5230954;28;20211;-80
2022/10/06 01:48:44;;;;;;;4.72;3.33;;;;;;;-141.48;100.00;69781.59;5230546;28;20132;-80
2022/10/06 01:51:15;;;;;;;11.00;3.50;;;;;;;-141.48;100.00;69781.59;5228289;28;20025;-79
2022/10/06 01:53:45;;;;;;;8.02;4.05;;;;;;;-141.48;100.00;69781.59;5228070;28;20085;-80
2022/10/06 01:56:15;;;;;;;13.95;5.07;;;;;;;-141.48;100.00;69781.59;5228184;28;20118;-80
2022/10/06 02:04:51;;;;;;;12.02;3.90;;;;;;;-141.48;100.00;69781.59;5291667;22;20049;-90
2022/10/06 02:07:22;;;;;;;6.55;3.97;;;;;;;-141.48;100.00;69781.59;5213642;28;20086;-90
2022/10/06 02:09:52;;;;;;;5.22;3.50;;;;;;;-141.48;100.00;69781.59;5215699;28;20417;-92
2022/10/06 02:12:23;;;;;;;5.20;3.20;;;;;;;-141.48;100.00;69781.59;5217432;28;20044;-91
2022/10/06 02:14:58;;;;;;;13.18;4.35;;;;;;;-141.48;100.00;69781.59;5222092;28;20052;-91
2022/10/06 02:17:28;;;;;;;9.48;4.50;;;;;;;-141.48;100.00;69781.59;5211962;28;20088;-91
2022/10/06 02:19:59;;;;;;;9.32;4.03;;;;;;;-141.48;100.00;69781.59;5251666;22;20053;-82
2022/10/06 02:22:30;;;;;;;19.25;4.22;;;;;;;-141.48;100.00;69781.59;5243636;28;20044;-82
2022/10/06 02:25:00;;;;;;;5.57;4.03;;;;;;;-141.48;100.00;69781.59;5241934;28;20021;-82
2022/10/06 02:27:30;;;;;;;5.70;3.75;;;;;;;-141.48;100.00;69781.59;5242193;28;20021;-82
2022/10/06 02:30:01;;;;;;;14.60;3.97;;;;;;;-141.48;100.00;69781.59;5243064;28;20017;-82
2022/10/06 02:32:36;;;;;;;6.15;3.90;;;;;;;-141.48;100.00;69781.59;5241213;28;20417;-82
2022/10/06 02:35:07;;;;;;;12.82;3.08;;;;;;;-141.48;100.00;69781.59;5238485;28;20021;-83
2022/10/06 02:37:40;;;;;;;4.07;3.28;;;;;;;-141.48;100.00;69781.59;5240931;28;20033;-82
2022/10/06 02:40:10;;;;;;;12.60;4.65;;;;;;;-141.48;100.00;69781.59;5240336;28;20021;-81
2022/10/06 02:42:41;;;;;;;3.95;3.65;;;;;;;-141.48;100.00;69781.59;5241157;28;20029;-82
2022/10/06 02:45:11;;;;;;;7.40;3.55;;;;;;;-141.48;100.00;69781.59;5238658;28;20025;-82
2022/10/06 02:47:42;;;;;;;9.07;4.43;;;;;;;-141.48;100.00;69781.59;5241294;28;20032;-83
2022/10/06 02:50:12;;;;;;;10.77;5.10;;;;;;;-141.48;100.00;69781.59;5244824;28;20056;-83
2022/10/06 02:52:43;;;;;;;9.32;4.28;;;;;;;-141.48;100.00;69781.59;5243995;28;20090;-81
2022/10/06 02:55:14;;;;;;;9.07;4.05;;;;;;;-141.48;100.00;69781.59;5244435;28;20025;-82
2022/10/06 02:57:44;;;;;;;10.27;3.40;;;;;;;-141.48;100.00;69781.59;5243857;28;20021;-82
2022/10/06 03:00:15;;;;;;;7.72;4.13;;;;;;;-141.48;100.00;69781.59;5243128;28;20074;-82
2022/10/06 03:02:45;;;;;;;5.30;4.80;;;;;;;-141.48;100.00;69781.59;5239061;28;20029;-81
2022/10/06 03:05:16;;;;;;;6.28;3.75;;;;;;;-141.48;100.00;69781.59;5239458;28;20067;-81
2022/10/06 03:07:46;;;;;;;3.17;2.88;;;;;;;-141.48;100.00;69781.59;5238835;28;20017;-82
2022/10/06 03:10:17;;;;;;;4.85;4.45;;;;;;;-141.48;100.00;69781.59;5238211;28;20407;-83
2022/10/06 03:12:47;;;;;;;11.15;4.97;;;;;;;-141.48;100.00;69781.59;5235406;28;20099;-82
2022/10/06 03:15:19;;;;;;;10.43;6.07;;;;;;;-141.48;100.00;69781.59;5236506;28;20071;-82
2022/10/06 03:17:51;;;;;;;4.93;4.60;;;;;;;-141.48;100.00;69781.59;5236690;28;20063;-83
2022/10/06 03:20:21;;;;;;;10.57;4.28;;;;;;;-141.48;100.00;69781.59;5238198;28;20033;-82
2022/10/06 03:22:52;;;;;;;15.05;5.07;;;;;;;-141.48;100.00;69781.59;5238720;28;20060;-82
2022/10/06 03:25:23;;;;;;;8.13;3.90;;;;;;;-141.48;100.00;69781.59;5238964;28;20552;-82
2022/10/06 03:27:53;;;;;;;13.27;4.80;;;;;;;-141.48;100.00;69781.59;5242424;28;20021;-82
2022/10/06 03:30:24;;;;;;;10.02;4.90;;;;;;;-141.48;100.00;69781.59;5246121;28;20025;-81
2022/10/06 03:32:54;;;;;;;15.10;3.92;;;;;;;-141.48;100.00;69781.59;5249215;28;20025;-82
2022/10/06 03:35:24;;;;;;;13.23;4.55;;;;;;;-141.48;100.00;69781.59;5245750;28;20021;-83
2022/10/06 03:37:57;;;;;;;8.07;4.63;;;;;;;-141.48;100.00;69781.59;5242508;28;20028;-83
2022/10/06 03:40:28;;;;;;;13.82;4.93;;;;;;;-141.48;100.00;69781.59;5242742;28;20025;-81
2022/10/06 03:42:58;;;;;;;15.13;5.10;;;;;;;-141.48;100.00;69781.59;5243872;28;20043;-82
2022/10/06 03:45:28;;;;;;;13.65;4.38;;;;;;;-141.48;100.00;69781.59;5241189;28;20024;-81
2022/10/06 03:47:59;;;;;;;11.70;4.72;;;;;;;-141.48;100.00;69781.59;5242523;28;20024;-82
2022/10/06 03:50:29;;;;;;;10.38;4.60;;;;;;;-141.48;100.00;69781.59;5242051;28;20087;-82
2022/10/06 03:52:59;;;;;;;5.70;4.80;;;;;;;-141.48;100.00;69781.59;5241701;28;20025;-81
2022/10/06 03:55:30;;;;;;;12.68;4.57;;;;;;;-141.48;100.00;69781.59;5241759;28;20048;-82
2022/10/06 03:58:00;;;;;;;11.07;4.88;;;;;;;-141.48;100.00;69781.59;5242895;28;20059;-81
2022/10/06 04:00:30;;;;;;;14.68;5.38;;;;;;;-141.48;100.00;69781.59;5241829;28;20025;-80
2022/10/06 04:03:01;;;;;;;10.27;4.90;;;;;;;-141.48;100.00;69781.59;5242270;28;20029;-82
2022/10/06 04:05:31;;;;;;;8.75;4.70;;;;;;;-141.48;100.00;69781.59;5241767;28;20055;-82
2022/10/06 04:08:01;;;;;;;4.32;4.00;;;;;;;-141.48;100.00;69781.59;5242886;28;20028;-82
2022/10/06 04:10:32;;;;;;;16.42;5.82;;;;;;;-141.48;100.00;69781.59;5242816;28;20033;-82
2022/10/06 04:13:02;;;;;;;10.88;4.78;;;;;;;-141.48;100.00;69781.59;5242874;28;20481;-82
2022/10/06 04:15:33;;;;;;;13.35;4.50;;;;;;;-141.48;100.00;69781.59;5240102;28;20021;-82
2022/10/06 04:18:03;;;;;;;16.70;5.10;;;;;;;-141.48;100.00;69781.59;5242569;28;20025;-82
2022/10/06 04:20:33;;;;;;;13.77;4.15;;;;;;;-141.48;100.00;69781.59;5241870;28;20047;-79
2022/10/06 04:23:04;;;;;;;14.57;5.25;;;;;;;-141.48;100.00;69781.59;5241310;28;20032;-80
2022/10/06 04:25:34;;;;;;;11.18;4.43;;;;;;;-141.48;100.00;69781.59;5240411;28;20346;-82
2022/10/06 04:28:05;;;;;;;11.85;4.70;;;;;;;-141.48;100.00;69781.59;5238036;28;20021;-82
2022/10/06 04:30:35;;;;;;;9.32;4.68;;;;;;;-141.48;100.00;69781.59;5241375;28;20067;-80
2022/10/06 04:33:06;;;;;;;13.93;4.50;;;;;;;-141.48;100.00;69781.59;5240523;28;20020;-82
2022/10/06 04:35:36;;;;;;;14.23;5.45;;;;;;;-141.48;100.00;69781.59;5239189;28;20116;-81
2022/10/06 04:38:07;;;;;;;8.45;5.88;;;;;;;-141.48;100.00;69781.59;5241677;28;20025;-81
2022/10/06 04:40:37;;;;;;;13.70;5.88;;;;;;;-141.48;100.00;69781.59;5211479;28;20396;-81
2022/10/06 04:43:08;;;;;;;8.73;4.40;;;;;;;-141.48;100.00;69781.59;5199028;28;20022;-81
2022/10/06 04:45:38;;;;;;;11.73;4.68;;;;;;;-141.48;100.00;69781.59;5199664;28;20112;-83
2022/10/06 04:48:08;;;;;;;7.93;3.58;;;;;;;-141.48;100.00;69781.59;5201328;28;20037;-82
2022/10/06 04:50:39;;;;;;;8.55;4.43;;;;;;;-141.48;100.00;69781.59;5219444;28;20084;-81
2022/10/06 04:53:09;;;;;;;9.93;5.60;;;;;;;-141.48;100.00;69781.59;5238078;28;20029;-82
2022/10/06 04:55:40;;;;;;;8.38;4.03;;;;;;;-141.48;100.00;69781.59;5241098;28;20058;-82
2022/10/06 04:58:10;;;;;;;8.90;4.43;;;;;;;-141.48;100.00;69781.59;5238071;28;20021;-82
2022/10/06 05:00:40;;;;;;;4.35;4.05;;;;;;;-141.48;100.00;69781.59;5221545;28;20029;-82
2022/10/06 05:03:11;;;;;;;12.95;5.40;;;;;;;-141.48;100.00;69781.59;5220512;28;20035;-80
2022/10/06 05:05:42;;;;;;;10.27;3.63;;;;;;;-141.48;100.00;69781.59;5218441;28;20124;-81
2022/10/06 05:08:12;;;;;;;8.52;4.70;;;;;;;-141.48;100.00;69781.59;5218548;28;20129;-81
2022/10/06 05:10:43;;;;;;;11.85;5.88;;;;;;;-141.48;100.00;69781.59;5220480;28;20047;-81
2022/10/06 05:13:13;;;;;;;8.98;4.28;;;;;;;-141.48;100.00;69781.59;5221708;28;20037;-81
2022/10/06 05:15:54;;;;;;;15.82;4.88;;;;;;;-141.48;100.00;69781.59;5219699;28;20072;-81
2022/10/06 05:18:26;;;;;;;6.53;3.63;;;;;;;-141.48;100.00;69781.59;5222722;28;20036;-83
2022/10/06 05:21:05;;;;;;;4.55;3.42;;;;;;;-141.48;100.00;69781.59;5221795;28;20040;-82
2022/10/06 05:23:37;;;;;;;10.70;4.10;;;;;;;-141.48;100.00;69781.59;5219825;28;20506;-82
2022/10/06 05:26:10;;;;;;;8.38;4.95;;;;;;;-141.48;100.00;69781.59;5221369;28;20090;-82
2022/10/06 05:28:40;;;;;;;12.35;4.35;;;;;;;-141.48;100.00;69781.59;5223703;28;20045;-82
2022/10/06 05:31:20;;;;;;;14.65;5.43;;;;;;;-141.48;100.00;69781.59;5226674;28;20036;-81
2022/10/06 05:33:50;;;;;;;9.88;4.95;;;;;;;-141.48;100.00;69781.59;5223978;28;20040;-83
2022/10/06 05:36:23;;;;;;;12.32;5.18;;;;;;;-141.48;100.00;69781.59;5219832;28;20029;-81
2022/10/06 05:38:55;;;;;;;10.38;4.50;;;;;;;-141.48;100.00;69781.59;5223037;28;20028;-80
2022/10/06 05:41:28;;;;;;;12.57;6.22;;;;;;;-141.48;100.00;69781.59;5220503;28;20051;-83
2022/10/06 05:43:59;;;;;;;16.15;7.38;;;;;;;-141.48;100.00;69781.59;5220069;28;20049;-83
2022/10/06 05:46:31;;;;;;;15.95;5.80;;;;;;;-141.48;100.00;69781.59;5220284;28;20048;-83
2022/10/06 05:49:08;;;;;;;15.77;5.75;;;;;;;-141.48;100.00;69781.59;5219562;28;20029;-82
2022/10/06 05:51:39;;;;;;;17.10;5.75;;;;;;;-141.48;100.00;69781.59;5221064;28;20249;-83
2022/10/06 05:54:09;;;;;;;10.93;5.97;;;;;;;-141.48;100.00;69781.59;5221455;28;20073;-83
2022/10/06 05:56:40;;;;;;;19.08;5.07;;;;;;;-141.48;100.00;69781.59;5219957;28;20052;-82
2022/10/06 05:59:10;;;;;;;8.60;5.55;;;;;;;-141.48;100.00;69781.59;5219917;28;20045;-83
2022/10/06 06:01:42;;;;;;;9.13;5.18;;;;;;;-141.48;100.00;69781.59;5218486;28;20033;-83
2022/10/06 06:04:13;;;;;;;9.77;5.28;;;;;;;-141.48;100.00;69781.59;5218755;28;20025;-83
2022/10/06 06:06:45;;;;;;;19.48;6.05;;;;;;;-141.48;100.00;69781.59;5218962;28;20083;-85
2022/10/06 06:09:18;;;;;;;10.88;5.22;;;;;;;-141.48;100.00;69781.59;5218309;28;20376;-84
2022/10/06 06:11:51;;;;;;;12.63;4.60;;;;;;;-141.48;100.00;69781.59;5217856;28;20032;-84
2022/10/06 06:15:59;;;;;;;5.10;4.68;;;;;;;-141.48;100.00;69781.59;5217083;28;20120;-83
2022/10/06 06:17:12;;;;;;;19.75;5.75;;;;;;;-141.48;100.00;69781.59;5220125;28;20037;-82
2022/10/06 06:19:42;;;;;;;15.05;4.60;;;;;;;-141.48;100.00;69781.59;5220178;28;20029;-81
2022/10/06 06:22:13;;;;;;;5.55;5.03;;;;;;;-141.48;100.00;69781.59;5219849;28;20033;-84
2022/10/06 06:24:43;;;;;;;11.15;5.63;;;;;;;-141.48;100.00;69781.59;5220306;28;20053;-83
2022/10/06 06:27:16;;;;;;;13.95;5.90;;;;;;;-141.48;100.00;69781.59;5221506;28;20080;-82
2022/10/06 06:29:46;;;;;;;17.42;6.03;;;;;;;-141.48;100.00;69781.59;5221944;28;20052;-84
2022/10/06 06:32:16;;;;;;;7.85;6.03;;;;;;;-141.48;100.00;69781.59;5221648;28;20021;-83
2022/10/06 06:34:47;;;;;;;9.77;4.72;;;;;;;-141.48;100.00;69781.59;5219869;28;20126;-90
2022/10/06 06:37:17;;;;;;;17.38;5.72;;;;;;;-141.48;100.00;69781.59;5217925;28;20026;-85
2022/10/06 06:39:48;;;;;;;9.63;6.10;;;;;;;-141.48;100.00;69781.59;5221390;28;20060;-84
2022/10/06 06:42:18;;;;;;;15.50;6.47;;;;;;;-141.48;100.00;69781.59;5218448;28;20048;-83
2022/10/06 06:44:49;;;;;;;12.68;4.45;;;;;;;-141.48;100.00;69781.59;5239956;28;20017;-83
2022/10/06 06:47:20;;;;;;;15.13;4.75;;;;;;;-141.48;100.00;69781.59;5241614;28;20046;-83
2022/10/06 06:49:50;;;;;;;18.13;4.70;;;;;;;-141.48;100.00;69781.59;5242344;28;20364;-84
2022/10/06 06:52:22;;;;;;;19.15;6.10;;;;;;;-141.48;100.00;69781.59;5241975;28;20039;-84
2022/10/06 06:54:52;;;;;;;11.68;4.43;;;;;;;-141.48;100.00;69781.59;5241418;28;20040;-82
2022/10/06 06:57:22;;;;;;;11.80;7.03;;;;;;;-141.48;100.00;69781.59;5241248;28;20024;-83
2022/10/06 06:59:54;;;;;;;9.43;5.75;;;;;;;-141.48;100.00;69781.59;5243733;28;20021;-84
2022/10/06 07:02:28;;;;;;;12.93;6.35;;;;;;;-141.48;100.00;69781.59;5246202;28;20025;-83
2022/10/06 07:04:58;;;;;;;7.53;4.32;;;;;;;-141.48;100.00;69781.59;5244430;28;20047;-83
2022/10/06 07:07:29;;;;;;;5.68;4.35;;;;;;;-141.48;100.00;69781.59;5245625;28;20017;-82
2022/10/06 07:09:59;;;;;;;8.52;5.47;;;;;;;-141.48;100.00;69781.59;5246018;28;20051;-82
2022/10/06 07:12:30;;;;;;;8.75;4.15;;;;;;;-141.48;100.00;69781.59;5245525;28;20013;-83
2022/10/06 07:26:16;;;;;;;9.60;5.18;;;;;;;-141.48;100.00;69781.59;5245575;28;20457;-82
2022/10/06 07:28:48;;;;;;;10.85;6.00;;;;;;;-141.48;100.00;69781.59;5245812;28;20017;-83
2022/10/06 07:31:18;;;;;;;16.52;6.15;;;;;;;-141.48;100.00;69781.59;5246288;28;20470;-82
2022/10/06 07:33:49;;;;;;;14.45;6.22;;;;;;;-141.48;100.00;69781.59;5244980;28;20032;-84
2022/10/06 07:36:21;;;;;;;9.30;5.63;;;;;;;-141.48;100.00;69781.59;5245841;28;20353;-84
2022/10/06 07:38:51;;;;;;;13.02;5.40;;;;;;;-141.48;100.00;69781.59;5245530;28;20063;-83
2022/10/06 07:41:22;;;;;;;11.02;4.00;;;;;;;-141.48;100.00;69781.59;5244688;28;20227;-86
2022/10/06 07:43:52;;;;;;;12.80;4.97;;;;;;;-141.48;100.00;69781.59;5243262;28;20433;-85
2022/10/06 07:46:23;;;;;;;15.48;5.50;;;;;;;-141.48;100.00;69781.59;5245486;28;20037;-84
2022/10/06 07:48:53;;;;;;;13.27;5.22;;;;;;;-141.48;100.00;69781.59;5242803;28;20024;-84
2022/10/06 07:51:26;;;;;;;5.68;4.00;;;;;;;-141.48;100.00;69781.59;5241611;28;20021;-85
2022/10/06 07:53:56;;;;;;;9.70;4.05;;;;;;;-141.48;100.00;69781.59;5243759;28;20035;-84
2022/10/06 07:56:26;;;;;;;10.70;4.53;;;;;;;-141.48;100.00;69781.59;5243446;28;20084;-85
2022/10/06 07:58:58;;;;;;;7.82;5.40;;;;;;;-141.48;100.00;69781.59;5244179;28;20029;-84
2022/10/06 08:01:29;;;;;;;7.40;3.88;;;;;;;-141.48;100.00;69781.59;5241646;28;20017;-83
2022/10/06 08:04:01;;;;;;;9.00;5.28;;;;;;;-141.48;100.00;69781.59;5220534;28;20398;-85
2022/10/06 08:06:33;;;;;;;9.93;5.45;;;;;;;-141.48;100.00;69781.59;5222982;28;20048;-85
2022/10/06 08:09:04;;;;;;;5.03;4.40;;;;;;;-141.48;100.00;69781.59;5222631;28;20076;-84
2022/10/06 08:11:35;;;;;;;9.20;5.18;;;;;;;-141.48;100.00;69781.59;5221439;28;20098;-84
2022/10/06 08:14:05;;;;;;;12.15;5.10;;;;;;;-141.48;100.00;69781.59;5221669;28;20025;-83
2022/10/06 08:16:35;;;;;;;24.98;4.68;;;;;;;-141.48;100.00;69781.59;5222931;28;20025;-83
2022/10/06 08:19:06;;;;;;;8.57;5.40;;;;;;;-141.48;100.00;69781.59;5221450;28;20053;-85
2022/10/06 08:21:38;;;;;;;14.60;5.63;;;;;;;-141.48;100.00;69781.59;5247704;22;20045;-66
2022/10/06 08:24:09;;;;;;;3.75;3.45;;;;;;;-141.48;100.00;69781.59;5210031;28;20036;-66
2022/10/06 08:26:40;;;;;;;14.23;5.00;;;;;;;-141.48;100.00;69781.59;5225430;28;20025;-66
2022/10/06 08:29:10;;;;;;;20.73;5.63;;;;;;;-141.48;100.00;69781.59;5207408;28;20056;-66
2022/10/06 08:31:41;;;;;;;10.52;4.03;;;;;;;-141.48;100.00;69781.59;5207375;28;20480;-66
2022/10/06 08:34:11;;;;;;;18.67;4.35;;;;;;;-141.48;100.00;69781.59;5206962;28;20040;-67
2022/10/06 08:36:42;;;;;;;10.00;4.93;;;;;;;-141.48;100.00;69781.59;5207323;28;20063;-66
2022/10/06 08:39:13;;;;;;;5.60;5.00;;;;;;;-141.48;100.00;69781.59;5207402;28;20485;-67
2022/10/06 08:41:50;;;;;;;13.68;4.53;;;;;;;-141.48;100.00;69781.59;5208142;28;20062;-67
2022/10/06 08:44:33;;;;;;;8.57;5.03;;;;;;;-141.48;100.00;69781.59;5207560;28;20114;-67
2022/10/06 08:47:34;;;;;;;8.30;4.15;;;;;;;-141.48;100.00;69781.59;5207724;28;20116;-67
2022/10/06 08:50:11;;;;;;;10.73;4.00;;;;;;;-141.48;100.00;69781.59;5195597;28;20393;-66
2022/10/06 08:53:00;;;;;;;15.95;4.78;;;;;;;-141.48;100.00;69781.59;5208079;28;20025;-67
2022/10/06 08:55:59;;;;;;;9.50;4.40;;;;;;;-141.48;100.00;69781.59;5226125;28;20078;-67
2022/10/06 08:58:35;;;;;;;4.60;3.90;;;;;;;-141.48;100.00;69781.59;5207127;28;20021;-66
2022/10/06 09:01:15;;;;;;;15.00;3.90;;;;;;;-141.48;100.00;69781.59;5207483;28;20040;-66
2022/10/06 09:03:47;;;;;;;;;;;;;;;-141.48;100.00;69781.59;5207337;28;20134;-66
2022/10/06 09:06:40;;;;;;;5.20;4.30;;;;;;;-141.48;100.00;69781.59;5206631;28;19992;-66
2022/10/06 09:09:45;;;;;;;23.73;6.13;;;;;;;-141.48;100.00;69781.59;5206959;28;20044;-66
2022/10/06 09:12:43;;;;;;;10.40;4.05;;;;;;;-141.48;100.00;69781.59;5205296;28;20064;-66
2022/10/06 09:15:14;;;;;;;11.57;3.53;;;;;;;-141.48;100.00;69781.59;5206744;28;20017;-66
2022/10/06 09:17:49;;;;;;;15.77;3.85;;;;;;;-141.48;100.00;69781.59;5206824;28;20138;-66
2022/10/06 09:20:33;;;;;;;6.07;3.95;;;;;;;-141.48;100.00;69781.59;5206364;28;20028;-66
2022/10/06 09:23:10;;;;;;;3.90;3.58;;;;;;;-141.48;100.00;69781.59;5206271;28;20112;-66
2022/10/06 09:25:40;;;;;;;5.68;3.42;;;;;;;-141.48;100.00;69781.59;5206337;28;20091;-66
2022/10/06 09:28:15;;;;;;;3.53;3.25;;;;;;;-141.48;100.00;69781.59;5206860;28;20029;-64
2022/10/06 09:30:45;;;;;;;17.17;4.13;;;;;;;-141.48;100.00;69781.59;5206904;28;20473;-66
2022/10/06 09:33:20;;;;;;;5.68;2.90;;;;;;;-141.48;100.00;69781.59;5206666;28;20024;-66
2022/10/06 09:36:08;;;;;;;7.95;3.80;;;;;;;-141.48;100.00;69781.59;5207327;28;20029;-66
2022/10/06 09:38:48;;;;;;;6.10;3.38;;;;;;;-141.48;100.00;69781.59;5206957;28;20029;-65
2022/10/06 09:41:23;;;;;;;3.80;2.92;;;;;;;-141.48;100.00;69781.59;5206318;28;20036;-66
2022/10/06 09:44:23;;;;;;;5.57;3.83;;;;;;;-141.48;100.00;69781.59;5205770;28;20036;-65
2022/10/06 09:46:54;;;;;;;9.60;3.55;;;;;;;-141.48;100.00;69781.59;5200692;28;20025;-66
2022/10/06 09:49:26;;;;;;;7.97;3.65;;;;;;;-141.48;100.00;69781.59;5206296;28;20546;-66
2022/10/06 09:52:15;;;;;;;6.10;4.03;;;;;;;-141.48;100.00;69781.59;5206382;28;20448;-66
2022/10/06 09:55:05;;;;;;;4.70;3.65;;;;;;;-141.48;100.00;69781.59;5205846;28;20033;-65
2022/10/06 09:57:36;;;;;;;9.93;3.10;;;;;;;-141.48;100.00;69781.59;5205950;28;20103;-66
2022/10/06 10:00:37;;;;;;;5.60;3.35;;;;;;;-141.48;100.00;69781.59;5205863;28;20119;-66
2022/10/06 10:03:12;;;;;;;6.35;3.85;;;;;;;-141.48;100.00;69781.59;5206044;28;20021;-66
2022/10/06 10:05:49;;;;;;;3.28;2.38;;;;;;;-141.48;100.00;69781.59;5205715;28;20480;-66
2022/10/06 10:08:29;;;;;;;5.25;3.25;;;;;;;-141.48;100.00;69781.59;5206126;28;20512;-66
2022/10/06 10:13:59;;;;;;;5.30;3.42;;;;;;;-141.48;100.00;69781.59;5223920;28;20136;-66
2022/10/06 10:16:33;;;;;;;4.25;3.53;;;;;;;-141.48;100.00;69781.59;5205945;28;20405;-66
2022/10/06 10:19:04;;;;;;;7.53;3.63;;;;;;;-141.48;100.00;69781.59;5205784;28;20037;-67
2022/10/06 10:21:36;;;;;;;4.35;3.65;;;;;;;-141.48;100.00;69781.59;5205314;28;20603;-66
2022/10/06 10:24:22;;;;;;;12.85;3.88;;;;;;;-141.48;100.00;69781.59;5205325;28;20052;-67
2022/10/06 10:27:04;;;;;;;10.77;3.63;;;;;;;-141.48;100.00;69781.59;5205592;28;20036;-66
2022/10/06 10:30:02;;;;;;;5.97;2.90;;;;;;;-141.48;100.00;69781.59;5204673;28;20116;-66
2022/10/06 10:32:41;;;;;;;9.48;4.18;;;;;;;-141.48;100.00;69781.59;5205347;28;20097;-66
2022/10/06 10:35:29;;;;;;;13.15;3.15;;;;;;;-141.48;100.00;69781.59;5205141;28;20021;-66
2022/10/06 10:38:07;;;;;;;3.72;3.30;;;;;;;-141.48;100.00;69781.59;5204815;28;20090;-66
2022/10/06 10:40:44;;;;;;;3.92;3.38;;;;;;;-141.48;100.00;69781.59;5205486;28;20055;-66
2022/10/06 10:43:27;;;;;;;2.85;2.60;;;;;;;-141.48;100.00;69781.59;5205623;28;20063;-65
2022/10/06 10:46:07;;;;;;;3.90;2.97;;;;;;;-141.48;100.00;69781.59;5205386;28;20032;-66
2022/10/06 10:48:56;;;;;;;4.90;3.15;;;;;;;-141.48;100.00;69781.59;5205564;28;20060;-66
2022/10/06 10:51:31;;;;;;;6.25;3.60;;;;;;;-141.48;100.00;69781.59;5205716;28;20031;-65
2022/10/06 10:54:09;;;;;;;4.03;3.03;;;;;;;-141.48;100.00;69781.59;5205810;28;20029;-66
2022/10/06 10:56:42;;;;;;;2.70;2.58;;;;;;;-141.48;100.00;69781.59;5223163;28;20087;-65
2022/10/06 10:59:33;;;;;;;5.55;2.67;;;;;;;-141.48;100.00;69781.59;5205315;28;20040;-65
2022/10/06 11:02:08;;;;;;;6.07;2.10;;;;;;;-141.48;100.00;69781.59;5205620;28;20040;-66
2022/10/06 11:04:48;;;;;;;3.80;2.50;;;;;;;-141.48;100.00;69781.59;5205373;28;20117;-65
2022/10/06 11:07:43;;;;;;;7.00;2.72;;;;;;;-141.48;100.00;69781.59;5204484;28;20526;-66
2022/10/06 11:10:17;;;;;;;3.53;2.58;;;;;;;-141.48;100.00;69781.59;5164877;28;20151;-66
2022/10/06 11:13:09;;;;;;;4.72;2.03;;;;;;;-141.48;100.00;69781.59;5165193;28;20180;-66
2022/10/06 11:15:55;;;;;;;3.67;2.67;;;;;;;-141.48;100.00;69781.59;5164585;28;20117;-66
2022/10/06 11:18:34;;;;;;;7.57;2.95;;;;;;;-141.48;100.00;69781.59;5164395;28;20125;-66
2022/10/06 11:21:14;;;;;;;4.20;2.47;;;;;;;-141.48;100.00;69781.59;5175571;28;20040;-66
2022/10/06 11:23:50;;;;;;;3.33;2.50;;;;;;;-141.48;100.00;69781.59;5192834;28;20057;-66
2022/10/06 11:26:38;;;;;;;3.65;3.17;;;;;;;-141.48;100.00;69781.59;5184578;28;20029;-66
2022/10/06 11:29:40;;;;;;;6.25;3.10;;;;;;;-141.48;100.00;69781.59;5184322;28;20035;-65
2022/10/06 11:32:22;;;;;;;4.93;3.50;;;;;;;-141.48;100.00;69781.59;5202119;28;20036;-66
2022/10/06 11:34:53;;;;;;;3.03;2.55;;;;;;;-141.48;100.00;69781.59;5183689;28;20083;-66
2022/10/06 11:37:33;;;;;;;2.67;2.28;;;;;;;-141.48;100.00;69781.59;5184028;28;20017;-65
2022/10/06 11:40:22;;;;;;;8.10;2.97;;;;;;;-141.48;100.00;69781.59;5184074;28;20033;-66
2022/10/06 11:43:34;;;;;;;6.10;2.47;;;;;;;-141.48;100.00;69781.59;5184736;28;20057;-67
2022/10/06 11:46:16;;;;;;;5.00;2.60;;;;;;;-141.48;100.00;69781.59;5148555;28;20390;-68
2022/10/06 11:48:46;;;;;;;7.70;2.78;;;;;;;-141.48;100.00;69781.59;5188426;28;20500;-68
2022/10/06 11:51:23;;;;;;;3.75;2.88;;;;;;;-141.48;100.00;69781.59;5188543;28;20060;-67
2022/10/06 11:53:54;;;;;;;5.63;2.08;;;;;;;-141.48;100.00;69781.59;5187893;28;20033;-64
2022/10/06 11:56:38;;;;;;;7.85;2.45;;;;;;;-141.48;100.00;69781.59;5206556;28;20025;-66
2022/10/06 11:59:23;;;;;;;4.10;2.45;;;;;;;-141.48;100.00;69781.59;5188434;28;20053;-68
2022/10/06 12:01:55;;;;;;;5.35;1.67;;;;;;;-141.48;100.00;69781.59;5188841;28;20100;-66
2022/10/06 12:04:26;;;;;;;4.43;3.45;;;;;;;-141.48;100.00;69781.59;5188461;28;20091;-64
2022/10/06 12:06:58;;;;;;;2.72;2.53;;;;;;;-141.48;100.00;69781.59;5188516;28;20013;-65